Carpenter, Iowa
Current Conditions -  °F | °C
As of 7:32 PM on Saturday 25 Oct 2014 (Local Time) from KAUM Reporting Station
Clear Clear  
Wind Chill: 52°   Ceiling: Unl
Heat Index: 52°   Visibility: NA
Dew Point: 32°   Wind: 7mph
Humidity: 47%   Direction: 300°WNW
Pressure: 30.06"   Gusts: NA
Location:  43.41°N, 93.01°W
Report Text: KAUM 260032Z AUTO 30006KT CLR 11/00 A3006 RMK AO2
Loading
Personal Weather Stations






























Interactive Weather Map
Tropical Storm Tracking
New forecast layout! Learn more

10-Day Weather Forecast

Advertisements
Track Severe Weather on mobile